sensor_id;sensor_type;location;lat;lon;timestamp;pressure;altitude;pressure_sealevel;temperature;humidity
64460;BME280;50828;53.756;21.140;2023-05-18T00:00:36;100613.74;;;7.61;62.44
64460;BME280;50828;53.756;21.140;2023-05-18T00:05:44;100622.17;;;7.51;62.25
64460;BME280;50828;53.756;21.140;2023-05-18T00:10:52;100625.31;;;7.43;62.31
64460;BME280;50828;53.756;21.140;2023-05-18T00:16:00;100629.17;;;7.33;62.56
64460;BME280;50828;53.756;21.140;2023-05-18T00:21:07;100633.59;;;7.22;62.43
64460;BME280;50828;53.756;21.140;2023-05-18T00:26:15;100629.27;;;7.08;62.44
64460;BME280;50828;53.756;21.140;2023-05-18T00:31:24;100641.97;;;7.03;62.61
64460;BME280;50828;53.756;21.140;2023-05-18T00:36:32;100642.29;;;6.95;62.79
64460;BME280;50828;53.756;21.140;2023-05-18T00:41:40;100647.85;;;6.86;62.92
64460;BME280;50828;53.756;21.140;2023-05-18T00:46:48;100650.80;;;6.77;62.95
64460;BME280;50828;53.756;21.140;2023-05-18T00:51:56;100657.08;;;6.68;63.12
64460;BME280;50828;53.756;21.140;2023-05-18T00:57:06;100653.71;;;6.58;63.28
64460;BME280;50828;53.756;21.140;2023-05-18T01:02:14;100664.83;;;6.52;63.58
64460;BME280;50828;53.756;21.140;2023-05-18T01:07:22;100664.77;;;6.45;63.24
64460;BME280;50828;53.756;21.140;2023-05-18T01:12:35;100672.23;;;6.36;63.36
64460;BME280;50828;53.756;21.140;2023-05-18T01:17:57;100678.29;;;6.28;63.38
64460;BME280;50828;53.756;21.140;2023-05-18T01:23:36;100681.03;;;6.20;63.52
64460;BME280;50828;53.756;21.140;2023-05-18T01:28:51;100680.61;;;6.11;63.24
64460;BME280;50828;53.756;21.140;2023-05-18T01:34:00;100685.62;;;6.03;63.36
64460;BME280;50828;53.756;21.140;2023-05-18T01:39:09;100690.92;;;5.96;63.79
64460;BME280;50828;53.756;21.140;2023-05-18T01:44:22;100700.27;;;5.89;63.61
64460;BME280;50828;53.756;21.140;2023-05-18T01:49:32;100700.53;;;5.81;63.70
64460;BME280;50828;53.756;21.140;2023-05-18T01:54:43;100704.10;;;5.74;64.09
64460;BME280;50828;53.756;21.140;2023-05-18T01:59:52;100703.46;;;5.67;64.39
64460;BME280;50828;53.756;21.140;2023-05-18T02:05:01;100703.71;;;5.61;64.31
64460;BME280;50828;53.756;21.140;2023-05-18T02:10:12;100710.02;;;5.58;64.54
64460;BME280;50828;53.756;21.140;2023-05-18T02:15:21;100706.53;;;5.57;64.83
64460;BME280;50828;53.756;21.140;2023-05-18T02:20:29;100707.24;;;5.57;65.05
64460;BME280;50828;53.756;21.140;2023-05-18T02:25:40;100709.16;;;5.57;65.48
64460;BME280;50828;53.756;21.140;2023-05-18T02:30:50;100710.73;;;5.58;65.53
64460;BME280;50828;53.756;21.140;2023-05-18T02:35:58;100704.77;;;5.59;65.80
64460;BME280;50828;53.756;21.140;2023-05-18T02:41:05;100710.18;;;5.61;65.83
64460;BME280;50828;53.756;21.140;2023-05-18T02:46:13;100710.50;;;5.63;66.08
64460;BME280;50828;53.756;21.140;2023-05-18T02:51:21;100711.52;;;5.65;66.17
64460;BME280;50828;53.756;21.140;2023-05-18T02:56:29;100719.02;;;5.68;66.29
64460;BME280;50828;53.756;21.140;2023-05-18T03:01:52;100726.66;;;5.72;66.33
64460;BME280;50828;53.756;21.140;2023-05-18T03:07:00;100731.70;;;5.77;66.54
64460;BME280;50828;53.756;21.140;2023-05-18T03:12:09;100737.75;;;5.81;66.63
64460;BME280;50828;53.756;21.140;2023-05-18T03:17:17;100737.00;;;5.86;66.65
64460;BME280;50828;53.756;21.140;2023-05-18T03:22:25;100742.54;;;5.92;66.63
64460;BME280;50828;53.756;21.140;2023-05-18T03:27:33;100751.41;;;5.98;66.90
64460;BME280;50828;53.756;21.140;2023-05-18T03:32:43;100757.80;;;6.05;67.04
64460;BME280;50828;53.756;21.140;2023-05-18T03:37:51;100761.56;;;6.13;67.01
64460;BME280;50828;53.756;21.140;2023-05-18T03:42:59;100765.14;;;6.21;67.23
64460;BME280;50828;53.756;21.140;2023-05-18T03:48:07;100767.65;;;6.30;67.04
64460;BME280;50828;53.756;21.140;2023-05-18T03:53:15;100773.82;;;6.41;67.25
64460;BME280;50828;53.756;21.140;2023-05-18T03:58:24;100779.98;;;6.52;67.18
64460;BME280;50828;53.756;21.140;2023-05-18T04:03:32;100785.27;;;6.62;67.23
64460;BME280;50828;53.756;21.140;2023-05-18T04:08:40;100791.61;;;6.72;67.27
64460;BME280;50828;53.756;21.140;2023-05-18T04:13:48;100797.60;;;6.83;66.98
64460;BME280;50828;53.756;21.140;2023-05-18T04:18:55;100803.26;;;6.92;66.94
64460;BME280;50828;53.756;21.140;2023-05-18T04:24:04;100812.40;;;7.01;67.02
64460;BME280;50828;53.756;21.140;2023-05-18T04:29:11;100816.66;;;7.10;67.09
64460;BME280;50828;53.756;21.140;2023-05-18T04:34:19;100823.00;;;7.19;67.12
64460;BME280;50828;53.756;21.140;2023-05-18T04:39:30;100823.90;;;7.29;67.41
64460;BME280;50828;53.756;21.140;2023-05-18T04:44:38;100828.83;;;7.39;67.34
64460;BME280;50828;53.756;21.140;2023-05-18T04:49:46;100834.13;;;7.48;67.42
64460;BME280;50828;53.756;21.140;2023-05-18T04:54:57;100845.52;;;7.58;67.25
64460;BME280;50828;53.756;21.140;2023-05-18T05:00:09;100848.69;;;7.68;67.08
64460;BME280;50828;53.756;21.140;2023-05-18T05:05:17;100847.46;;;7.79;67.19
64460;BME280;50828;53.756;21.140;2023-05-18T05:10:25;100852.36;;;7.90;67.23
64460;BME280;50828;53.756;21.140;2023-05-18T05:15:34;100858.80;;;8.03;67.45
64460;BME280;50828;53.756;21.140;2023-05-18T05:20:41;100854.55;;;8.14;67.17
64460;BME280;50828;53.756;21.140;2023-05-18T05:25:49;100864.38;;;8.34;67.34
64460;BME280;50828;53.756;21.140;2023-05-18T05:30:58;100864.39;;;8.53;67.44
64460;BME280;50828;53.756;21.140;2023-05-18T05:36:08;100862.04;;;8.74;67.42
64460;BME280;50828;53.756;21.140;2023-05-18T05:41:16;100863.88;;;8.95;67.23
64460;BME280;50828;53.756;21.140;2023-05-18T05:46:23;100871.00;;;9.15;67.11
64460;BME280;50828;53.756;21.140;2023-05-18T05:51:33;100863.05;;;9.32;66.96
64460;BME280;50828;53.756;21.140;2023-05-18T05:56:41;100864.05;;;9.49;66.80
64460;BME280;50828;53.756;21.140;2023-05-18T06:01:50;100863.56;;;9.62;66.41
64460;BME280;50828;53.756;21.140;2023-05-18T06:06:58;100857.33;;;9.73;65.97
64460;BME280;50828;53.756;21.140;2023-05-18T06:12:08;100848.23;;;9.78;66.05
64460;BME280;50828;53.756;21.140;2023-05-18T06:17:16;100855.86;;;9.90;65.52
64460;BME280;50828;53.756;21.140;2023-05-18T06:22:24;100875.14;;;10.06;65.17
64460;BME280;50828;53.756;21.140;2023-05-18T06:27:52;100879.84;;;10.14;64.10
64460;BME280;50828;53.756;21.140;2023-05-18T06:33:20;100882.65;;;10.22;63.86
64460;BME280;50828;53.756;21.140;2023-05-18T06:38:29;100888.42;;;10.30;63.38
64460;BME280;50828;53.756;21.140;2023-05-18T06:43:37;100888.91;;;10.39;62.78
64460;BME280;50828;53.756;21.140;2023-05-18T06:48:56;100895.45;;;10.51;62.87
64460;BME280;50828;53.756;21.140;2023-05-18T06:54:04;100901.94;;;10.65;62.72
64460;BME280;50828;53.756;21.140;2023-05-18T06:59:12;100908.75;;;10.80;62.24
64460;BME280;50828;53.756;21.140;2023-05-18T07:04:21;100909.22;;;10.94;62.15
64460;BME280;50828;53.756;21.140;2023-05-18T07:09:28;100915.89;;;11.07;61.54
64460;BME280;50828;53.756;21.140;2023-05-18T07:14:36;100915.80;;;11.16;60.74
64460;BME280;50828;53.756;21.140;2023-05-18T07:19:43;100917.96;;;11.26;60.58
64460;BME280;50828;53.756;21.140;2023-05-18T07:24:51;100920.70;;;11.34;60.26
64460;BME280;50828;53.756;21.140;2023-05-18T07:29:58;100927.84;;;11.44;60.50
64460;BME280;50828;53.756;21.140;2023-05-18T07:35:07;100923.14;;;11.53;60.37
64460;BME280;50828;53.756;21.140;2023-05-18T07:40:15;100927.31;;;11.67;60.37
64460;BME280;50828;53.756;21.140;2023-05-18T07:45:23;100935.44;;;11.83;60.07
64460;BME280;50828;53.756;21.140;2023-05-18T07:50:31;100941.91;;;12.02;60.00
64460;BME280;50828;53.756;21.140;2023-05-18T07:55:39;100942.11;;;12.22;59.69
64460;BME280;50828;53.756;21.140;2023-05-18T08:00:47;100944.14;;;12.41;59.64
64460;BME280;50828;53.756;21.140;2023-05-18T08:05:55;100945.19;;;12.56;58.91
64460;BME280;50828;53.756;21.140;2023-05-18T08:11:02;100951.81;;;12.69;58.29
64460;BME280;50828;53.756;21.140;2023-05-18T08:16:10;100949.88;;;12.78;58.05
64460;BME280;50828;53.756;21.140;2023-05-18T08:21:18;100952.73;;;12.88;57.46
64460;BME280;50828;53.756;21.140;2023-05-18T08:26:25;100951.67;;;12.97;56.81
64460;BME280;50828;53.756;21.140;2023-05-18T08:31:33;100946.35;;;13.02;56.42
64460;BME280;50828;53.756;21.140;2023-05-18T08:36:41;100948.60;;;13.09;55.77
64460;BME280;50828;53.756;21.140;2023-05-18T08:41:56;100950.55;;;13.13;55.19
64460;BME280;50828;53.756;21.140;2023-05-18T08:47:09;100952.56;;;13.16;54.73
64460;BME280;50828;53.756;21.140;2023-05-18T08:52:18;100953.11;;;13.20;54.69
64460;BME280;50828;53.756;21.140;2023-05-18T08:57:29;100950.94;;;13.26;54.85
64460;BME280;50828;53.756;21.140;2023-05-18T09:02:39;100950.70;;;13.33;54.57
64460;BME280;50828;53.756;21.140;2023-05-18T09:07:47;100957.50;;;13.40;54.51
64460;BME280;50828;53.756;21.140;2023-05-18T09:12:56;100961.65;;;13.48;54.08
64460;BME280;50828;53.756;21.140;2023-05-18T09:18:06;100956.44;;;13.54;53.69
64460;BME280;50828;53.756;21.140;2023-05-18T09:23:14;100960.98;;;13.60;53.34
64460;BME280;50828;53.756;21.140;2023-05-18T09:28:34;100961.81;;;13.66;52.94
64460;BME280;50828;53.756;21.140;2023-05-18T09:33:44;100962.80;;;13.72;52.31
64460;BME280;50828;53.756;21.140;2023-05-18T09:38:52;100966.39;;;13.80;52.40
64460;BME280;50828;53.756;21.140;2023-05-18T09:44:00;100968.05;;;13.87;52.22
64460;BME280;50828;53.756;21.140;2023-05-18T09:49:22;100976.08;;;13.95;52.16
64460;BME280;50828;53.756;21.140;2023-05-18T09:54:29;100969.85;;;14.04;52.00
64460;BME280;50828;53.756;21.140;2023-05-18T09:59:38;100963.52;;;14.12;51.62
64460;BME280;50828;53.756;21.140;2023-05-18T10:04:46;100966.80;;;14.18;51.72
64460;BME280;50828;53.756;21.140;2023-05-18T10:10:02;100964.02;;;14.25;51.63
64460;BME280;50828;53.756;21.140;2023-05-18T10:15:15;100955.58;;;14.32;51.14
64460;BME280;50828;53.756;21.140;2023-05-18T10:20:25;100951.61;;;14.38;51.12
64460;BME280;50828;53.756;21.140;2023-05-18T10:25:34;100957.83;;;14.46;50.76
64460;BME280;50828;53.756;21.140;2023-05-18T10:30:43;100961.98;;;14.52;50.83
64460;BME280;50828;53.756;21.140;2023-05-18T10:35:51;100962.61;;;14.59;50.48
64460;BME280;50828;53.756;21.140;2023-05-18T10:40:59;100962.88;;;14.65;50.29
64460;BME280;50828;53.756;21.140;2023-05-18T10:46:07;100962.35;;;14.74;50.43
64460;BME280;50828;53.756;21.140;2023-05-18T10:51:16;100966.77;;;14.81;50.17
64460;BME280;50828;53.756;21.140;2023-05-18T10:56:25;100967.98;;;14.90;50.34
64460;BME280;50828;53.756;21.140;2023-05-18T11:01:34;100964.39;;;14.99;50.20
64460;BME280;50828;53.756;21.140;2023-05-18T11:06:43;100965.98;;;15.07;50.24
64460;BME280;50828;53.756;21.140;2023-05-18T11:12:00;100966.80;;;15.16;49.88
64460;BME280;50828;53.756;21.140;2023-05-18T11:17:19;100966.39;;;15.26;49.93
64460;BME280;50828;53.756;21.140;2023-05-18T11:22:41;100967.34;;;15.32;49.44
64460;BME280;50828;53.756;21.140;2023-05-18T11:27:48;100969.45;;;15.40;49.03
64460;BME280;50828;53.756;21.140;2023-05-18T11:33:09;100963.75;;;15.44;48.99
64460;BME280;50828;53.756;21.140;2023-05-18T11:38:17;100962.75;;;15.50;48.84
64460;BME280;50828;53.756;21.140;2023-05-18T11:43:25;100957.51;;;15.56;48.68
64460;BME280;50828;53.756;21.140;2023-05-18T11:48:32;100962.46;;;15.60;48.00
64460;BME280;50828;53.756;21.140;2023-05-18T11:53:41;100965.25;;;15.61;47.33
64460;BME280;50828;53.756;21.140;2023-05-18T11:59:11;100965.25;;;15.65;47.28
64460;BME280;50828;53.756;21.140;2023-05-18T12:04:20;100965.11;;;15.68;46.88
64460;BME280;50828;53.756;21.140;2023-05-18T12:09:31;100964.88;;;15.73;47.27
64460;BME280;50828;53.756;21.140;2023-05-18T12:14:39;100968.36;;;15.79;47.15
64460;BME280;50828;53.756;21.140;2023-05-18T12:19:48;100965.28;;;15.84;47.07
64460;BME280;50828;53.756;21.140;2023-05-18T12:24:56;100962.45;;;15.90;46.97
64460;BME280;50828;53.756;21.140;2023-05-18T12:30:04;100964.91;;;15.98;46.65
64460;BME280;50828;53.756;21.140;2023-05-18T12:35:12;100966.56;;;16.04;46.38
64460;BME280;50828;53.756;21.140;2023-05-18T12:40:20;100963.17;;;16.08;45.45
64460;BME280;50828;53.756;21.140;2023-05-18T12:45:29;100959.55;;;16.10;45.08
64460;BME280;50828;53.756;21.140;2023-05-18T12:50:46;100962.95;;;16.13;44.75
64460;BME280;50828;53.756;21.140;2023-05-18T12:55:59;100961.48;;;16.14;44.59
64460;BME280;50828;53.756;21.140;2023-05-18T13:01:10;100961.10;;;16.18;44.68
64460;BME280;50828;53.756;21.140;2023-05-18T13:06:19;100960.94;;;16.21;44.58
64460;BME280;50828;53.756;21.140;2023-05-18T13:11:27;100949.69;;;16.26;44.91
64460;BME280;50828;53.756;21.140;2023-05-18T13:16:38;100949.32;;;16.30;44.63
64460;BME280;50828;53.756;21.140;2023-05-18T13:21:53;100946.41;;;16.35;44.40
64460;BME280;50828;53.756;21.140;2023-05-18T13:27:01;100944.20;;;16.39;44.60
64460;BME280;50828;53.756;21.140;2023-05-18T13:32:09;100943.88;;;16.45;44.56
64460;BME280;50828;53.756;21.140;2023-05-18T13:37:17;100943.08;;;16.51;44.46
64460;BME280;50828;53.756;21.140;2023-05-18T13:42:25;100944.35;;;16.57;43.94
64460;BME280;50828;53.756;21.140;2023-05-18T13:47:33;100938.29;;;16.61;43.79
64460;BME280;50828;53.756;21.140;2023-05-18T13:52:41;100939.91;;;16.64;43.13
64460;BME280;50828;53.756;21.140;2023-05-18T13:57:49;100936.42;;;16.66;43.45
64460;BME280;50828;53.756;21.140;2023-05-18T14:02:56;100936.91;;;16.70;43.15
64460;BME280;50828;53.756;21.140;2023-05-18T14:08:05;100945.75;;;16.71;42.55
64460;BME280;50828;53.756;21.140;2023-05-18T14:13:13;100945.73;;;16.72;42.39
64460;BME280;50828;53.756;21.140;2023-05-18T14:18:25;100943.77;;;16.72;42.17
64460;BME280;50828;53.756;21.140;2023-05-18T14:23:33;100939.23;;;16.74;42.05
64460;BME280;50828;53.756;21.140;2023-05-18T14:28:41;100942.20;;;16.75;42.11
64460;BME280;50828;53.756;21.140;2023-05-18T14:33:48;100940.57;;;16.75;42.05
64460;BME280;50828;53.756;21.140;2023-05-18T14:38:56;100934.32;;;16.75;42.31
64460;BME280;50828;53.756;21.140;2023-05-18T14:44:04;100934.55;;;16.78;42.29
64460;BME280;50828;53.756;21.140;2023-05-18T14:49:13;100938.23;;;16.79;42.16
64460;BME280;50828;53.756;21.140;2023-05-18T14:54:20;100937.16;;;16.79;42.22
64460;BME280;50828;53.756;21.140;2023-05-18T14:59:28;100937.91;;;16.79;42.23
64460;BME280;50828;53.756;21.140;2023-05-18T15:04:36;100933.81;;;16.78;42.73
64460;BME280;50828;53.756;21.140;2023-05-18T15:09:43;100937.23;;;16.81;42.52
64460;BME280;50828;53.756;21.140;2023-05-18T15:14:51;100935.86;;;16.80;42.28
64460;BME280;50828;53.756;21.140;2023-05-18T15:19:58;100930.12;;;16.77;42.35
64460;BME280;50828;53.756;21.140;2023-05-18T15:25:08;100931.10;;;16.76;42.41
64460;BME280;50828;53.756;21.140;2023-05-18T15:30:15;100925.20;;;16.73;42.25
64460;BME280;50828;53.756;21.140;2023-05-18T15:35:23;100923.96;;;16.73;42.69
64460;BME280;50828;53.756;21.140;2023-05-18T15:40:31;100923.91;;;16.74;42.53
64460;BME280;50828;53.756;21.140;2023-05-18T15:45:38;100921.74;;;16.75;42.44
64460;BME280;50828;53.756;21.140;2023-05-18T15:50:46;100923.92;;;16.74;42.03
64460;BME280;50828;53.756;21.140;2023-05-18T15:55:53;100917.34;;;16.70;41.87
64460;BME280;50828;53.756;21.140;2023-05-18T16:01:04;100914.65;;;16.67;41.93
64460;BME280;50828;53.756;21.140;2023-05-18T16:06:12;100911.64;;;16.64;42.29
64460;BME280;50828;53.756;21.140;2023-05-18T16:11:20;100917.70;;;16.63;42.00
64460;BME280;50828;53.756;21.140;2023-05-18T16:16:28;100918.68;;;16.62;41.89
64460;BME280;50828;53.756;21.140;2023-05-18T16:21:35;100915.70;;;16.58;42.04
64460;BME280;50828;53.756;21.140;2023-05-18T16:26:42;100920.44;;;16.55;42.02
64460;BME280;50828;53.756;21.140;2023-05-18T16:31:50;100918.05;;;16.54;42.01
64460;BME280;50828;53.756;21.140;2023-05-18T16:36:58;100919.72;;;16.52;42.04
64460;BME280;50828;53.756;21.140;2023-05-18T16:42:06;100921.80;;;16.50;42.13
64460;BME280;50828;53.756;21.140;2023-05-18T16:47:14;100923.70;;;16.47;42.42
64460;BME280;50828;53.756;21.140;2023-05-18T16:52:21;100927.93;;;16.44;42.16
64460;BME280;50828;53.756;21.140;2023-05-18T16:57:29;100932.04;;;16.41;42.33
64460;BME280;50828;53.756;21.140;2023-05-18T17:02:39;100929.16;;;16.34;42.48
64460;BME280;50828;53.756;21.140;2023-05-18T17:07:46;100932.70;;;16.31;42.48
64460;BME280;50828;53.756;21.140;2023-05-18T17:12:54;100935.40;;;16.27;42.42
64460;BME280;50828;53.756;21.140;2023-05-18T17:18:03;100937.60;;;16.22;42.12
64460;BME280;50828;53.756;21.140;2023-05-18T17:23:11;100943.58;;;16.17;42.02
64460;BME280;50828;53.756;21.140;2023-05-18T17:28:25;100948.31;;;16.11;42.49
64460;BME280;50828;53.756;21.140;2023-05-18T17:33:33;100945.08;;;16.04;42.47
64460;BME280;50828;53.756;21.140;2023-05-18T17:38:44;100949.98;;;15.99;43.04
64460;BME280;50828;53.756;21.140;2023-05-18T17:43:52;100956.05;;;15.91;43.32
64460;BME280;50828;53.756;21.140;2023-05-18T17:49:00;100965.56;;;15.85;43.49
64460;BME280;50828;53.756;21.140;2023-05-18T17:54:09;100976.77;;;15.77;43.49
64460;BME280;50828;53.756;21.140;2023-05-18T17:59:17;100977.41;;;15.67;43.41
64460;BME280;50828;53.756;21.140;2023-05-18T18:04:24;100983.46;;;15.55;43.35
64460;BME280;50828;53.756;21.140;2023-05-18T18:09:32;100991.14;;;15.43;43.41
64460;BME280;50828;53.756;21.140;2023-05-18T18:14:40;100996.04;;;15.29;43.26
64460;BME280;50828;53.756;21.140;2023-05-18T18:19:47;101002.88;;;15.15;43.40
64460;BME280;50828;53.756;21.140;2023-05-18T18:24:55;101012.18;;;15.05;43.45
64460;BME280;50828;53.756;21.140;2023-05-18T18:30:03;101015.20;;;14.93;43.89
64460;BME280;50828;53.756;21.140;2023-05-18T18:35:12;101017.63;;;14.82;43.75
64460;BME280;50828;53.756;21.140;2023-05-18T18:40:20;101019.37;;;14.71;43.77
64460;BME280;50828;53.756;21.140;2023-05-18T18:45:28;101025.31;;;14.60;43.42
64460;BME280;50828;53.756;21.140;2023-05-18T18:50:36;101030.02;;;14.48;43.87
64460;BME280;50828;53.756;21.140;2023-05-18T18:55:44;101038.97;;;14.38;43.79
64460;BME280;50828;53.756;21.140;2023-05-18T19:00:52;101045.26;;;14.27;44.09
64460;BME280;50828;53.756;21.140;2023-05-18T19:06:00;101052.08;;;14.16;44.41
64460;BME280;50828;53.756;21.140;2023-05-18T19:11:08;101052.66;;;14.06;44.76
64460;BME280;50828;53.756;21.140;2023-05-18T19:16:16;101055.83;;;13.97;44.81
64460;BME280;50828;53.756;21.140;2023-05-18T19:21:24;101058.30;;;13.89;44.83
64460;BME280;50828;53.756;21.140;2023-05-18T19:26:32;101060.07;;;13.79;44.83
64460;BME280;50828;53.756;21.140;2023-05-18T19:31:40;101059.94;;;13.69;44.85
64460;BME280;50828;53.756;21.140;2023-05-18T19:36:49;101064.10;;;13.62;45.00
64460;BME280;50828;53.756;21.140;2023-05-18T19:41:57;101068.15;;;13.52;45.06
64460;BME280;50828;53.756;21.140;2023-05-18T19:47:06;101066.73;;;13.43;45.21
64460;BME280;50828;53.756;21.140;2023-05-18T19:52:14;101068.78;;;13.35;45.31
64460;BME280;50828;53.756;21.140;2023-05-18T19:57:23;101070.16;;;13.26;45.41
64460;BME280;50828;53.756;21.140;2023-05-18T20:02:31;101072.59;;;13.18;45.43
64460;BME280;50828;53.756;21.140;2023-05-18T20:07:39;101070.90;;;13.10;45.68
64460;BME280;50828;53.756;21.140;2023-05-18T20:12:46;101076.29;;;13.02;46.12
64460;BME280;50828;53.756;21.140;2023-05-18T20:17:54;101080.94;;;12.96;46.44
64460;BME280;50828;53.756;21.140;2023-05-18T20:23:02;101084.34;;;12.90;46.76
64460;BME280;50828;53.756;21.140;2023-05-18T20:28:12;101086.70;;;12.83;47.05
64460;BME280;50828;53.756;21.140;2023-05-18T20:33:21;101089.41;;;12.76;47.59
64460;BME280;50828;53.756;21.140;2023-05-18T20:38:29;101082.65;;;12.67;47.77
64460;BME280;50828;53.756;21.140;2023-05-18T20:43:37;101088.66;;;12.61;48.04
64460;BME280;50828;53.756;21.140;2023-05-18T20:48:45;101093.15;;;12.54;48.12
64460;BME280;50828;53.756;21.140;2023-05-18T20:53:53;101099.73;;;12.47;48.38
64460;BME280;50828;53.756;21.140;2023-05-18T20:59:00;101101.41;;;12.39;48.48
64460;BME280;50828;53.756;21.140;2023-05-18T21:04:11;101105.84;;;12.33;48.90
64460;BME280;50828;53.756;21.140;2023-05-18T21:09:21;101112.63;;;12.25;49.08
64460;BME280;50828;53.756;21.140;2023-05-18T21:14:29;101118.46;;;12.19;49.08
64460;BME280;50828;53.756;21.140;2023-05-18T21:19:37;101117.63;;;12.11;49.47
64460;BME280;50828;53.756;21.140;2023-05-18T21:24:45;101119.96;;;12.04;49.41
64460;BME280;50828;53.756;21.140;2023-05-18T21:29:53;101122.46;;;11.98;49.67
64460;BME280;50828;53.756;21.140;2023-05-18T21:35:00;101118.27;;;11.89;49.75
64460;BME280;50828;53.756;21.140;2023-05-18T21:40:10;101125.84;;;11.83;49.97
64460;BME280;50828;53.756;21.140;2023-05-18T21:45:18;101131.13;;;11.78;50.06
64460;BME280;50828;53.756;21.140;2023-05-18T21:50:29;101131.98;;;11.72;50.03
64460;BME280;50828;53.756;21.140;2023-05-18T21:55:40;101135.17;;;11.66;50.15
64460;BME280;50828;53.756;21.140;2023-05-18T22:00:48;101136.57;;;11.60;50.51
64460;BME280;50828;53.756;21.140;2023-05-18T22:05:56;101133.71;;;11.55;50.51
64460;BME280;50828;53.756;21.140;2023-05-18T22:11:05;101131.08;;;11.48;50.85
64460;BME280;50828;53.756;21.140;2023-05-18T22:16:13;101134.40;;;11.43;50.93
64460;BME280;50828;53.756;21.140;2023-05-18T22:21:21;101136.86;;;11.37;51.00
64460;BME280;50828;53.756;21.140;2023-05-18T22:26:29;101132.77;;;11.31;50.98
64460;BME280;50828;53.756;21.140;2023-05-18T22:31:36;101133.08;;;11.26;51.11
64460;BME280;50828;53.756;21.140;2023-05-18T22:36:44;101131.49;;;11.20;51.15
64460;BME280;50828;53.756;21.140;2023-05-18T22:41:52;101132.30;;;11.16;51.35
64460;BME280;50828;53.756;21.140;2023-05-18T22:46:59;101132.39;;;11.12;51.49
64460;BME280;50828;53.756;21.140;2023-05-18T22:52:09;101127.79;;;11.06;51.65
64460;BME280;50828;53.756;21.140;2023-05-18T22:57:16;101134.75;;;11.03;51.60
64460;BME280;50828;53.756;21.140;2023-05-18T23:02:27;101132.25;;;10.98;51.58
64460;BME280;50828;53.756;21.140;2023-05-18T23:07:35;101133.24;;;10.93;51.88
64460;BME280;50828;53.756;21.140;2023-05-18T23:12:43;101130.36;;;10.89;51.74
64460;BME280;50828;53.756;21.140;2023-05-18T23:17:53;101130.27;;;10.85;52.05
64460;BME280;50828;53.756;21.140;2023-05-18T23:23:00;101130.57;;;10.80;52.09
64460;BME280;50828;53.756;21.140;2023-05-18T23:28:08;101133.13;;;10.76;52.24
64460;BME280;50828;53.756;21.140;2023-05-18T23:33:17;101129.17;;;10.72;52.30
64460;BME280;50828;53.756;21.140;2023-05-18T23:38:29;101130.35;;;10.68;52.56
64460;BME280;50828;53.756;21.140;2023-05-18T23:43:40;101129.20;;;10.64;53.09
64460;BME280;50828;53.756;21.140;2023-05-18T23:48:49;101122.63;;;10.59;52.72
64460;BME280;50828;53.756;21.140;2023-05-18T23:53:58;101116.70;;;10.56;52.84
64460;BME280;50828;53.756;21.140;2023-05-18T23:59:07;101121.21;;;10.52;52.94
